Time;durP1;ratioP1;P1;durP2;ratioP2;P2;SDS_P1;SDS_P2;PMS_P1;PMS_P2;Temp;Humidity;BMP_temperature;BMP_pressure;BME280_temperature;BME280_humidity;BME280_pressure;Samples;Min_cycle;Max_cycle;Signal;HPM_P1;HPM_P2
2021/12/14 00:01:17;;;;;;;1.60;1.20;;;8.40;98.20;;;;;;5050458;28;21207;-78
2021/12/14 00:03:49;;;;;;;1.60;1.20;;;8.40;98.20;;;;;;5050716;28;20462;-77
2021/12/14 00:06:18;;;;;;;1.60;1.20;;;8.40;98.20;;;;;;5050349;28;20561;-77
2021/12/14 00:08:55;;;;;;;1.60;1.27;;;8.40;98.20;;;;;;5052963;28;20487;-77
2021/12/14 00:11:33;;;;;;;1.60;1.20;;;8.40;98.20;;;;;;5051435;28;20511;-77
2021/12/14 00:14:15;;;;;;;1.60;1.20;;;8.40;98.20;;;;;;5051619;28;20473;-76
2021/12/14 00:16:44;;;;;;;1.60;1.17;;;8.40;98.20;;;;;;5052197;28;20484;-78
2021/12/14 00:19:13;;;;;;;1.60;1.27;;;8.40;98.20;;;;;;5051704;28;20463;-78
2021/12/14 00:21:43;;;;;;;1.60;1.20;;;8.40;98.20;;;;;;5050577;28;20499;-77
2021/12/14 00:24:14;;;;;;;1.60;1.20;;;8.40;98.20;;;;;;5051819;28;20468;-78
2021/12/14 00:26:45;;;;;;;1.60;1.20;;;8.40;98.20;;;;;;5049730;28;20462;-78
2021/12/14 00:29:16;;;;;;;1.60;1.20;;;8.40;98.20;;;;;;5049158;28;20466;-76
2021/12/14 00:31:45;;;;;;;1.60;1.20;;;8.40;98.20;;;;;;5050384;28;20491;-78
2021/12/14 00:34:22;;;;;;;1.60;1.20;;;8.40;98.20;;;;;;5050422;28;20458;-79
2021/12/14 00:36:49;;;;;;;1.60;1.20;;;8.40;98.20;;;;;;5050021;28;20458;-78
2021/12/14 00:39:17;;;;;;;1.60;1.20;;;8.40;98.20;;;;;;5050884;28;20493;-78
2021/12/14 00:41:44;;;;;;;1.63;1.20;;;8.30;98.20;;;;;;5050310;28;20496;-77
2021/12/14 00:44:12;;;;;;;1.60;1.20;;;8.30;98.20;;;;;;5050731;28;20477;-77
2021/12/14 00:46:40;;;;;;;1.60;1.20;;;8.30;98.20;;;;;;5051310;28;20958;-77
2021/12/14 00:49:10;;;;;;;1.60;1.20;;;8.30;98.20;;;;;;5050981;28;20912;-77
2021/12/14 00:51:38;;;;;;;1.60;1.10;;;8.30;98.20;;;;;;5050354;28;20521;-77
2021/12/14 00:54:10;;;;;;;1.60;1.17;;;8.30;98.20;;;;;;5046319;28;20494;-76
2021/12/14 00:56:37;;;;;;;1.60;1.20;;;8.30;98.20;;;;;;5050234;28;20474;-77
2021/12/14 00:59:05;;;;;;;1.60;1.20;;;8.30;98.20;;;;;;5050668;28;20490;-77
2021/12/14 01:01:36;;;;;;;1.60;1.20;;;8.30;98.20;;;;;;5049558;28;20574;-77
2021/12/14 01:04:08;;;;;;;1.60;1.20;;;8.20;98.20;;;;;;5051363;28;20454;-78
2021/12/14 01:06:44;;;;;;;1.60;1.30;;;8.20;98.20;;;;;;5050845;28;21087;-77
2021/12/14 01:09:12;;;;;;;1.60;1.20;;;8.30;98.20;;;;;;5052230;28;20519;-78
2021/12/14 01:11:44;;;;;;;1.60;1.23;;;8.20;98.20;;;;;;5051001;28;20806;-77
2021/12/14 01:14:17;;;;;;;1.60;1.20;;;8.20;98.20;;;;;;5051075;28;20466;-77
2021/12/14 01:16:53;;;;;;;1.60;1.20;;;8.20;98.20;;;;;;5051614;28;20470;-78
2021/12/14 01:19:26;;;;;;;1.60;1.20;;;8.20;98.20;;;;;;5050878;28;20466;-77
2021/12/14 01:22:14;;;;;;;1.60;1.10;;;8.20;98.20;;;;;;5049676;28;20494;-78
2021/12/14 01:25:02;;;;;;;1.60;1.30;;;8.20;98.20;;;;;;5051169;28;20869;-76
2021/12/14 01:27:33;;;;;;;1.60;1.30;;;8.20;98.20;;;;;;5048246;28;20486;-76
2021/12/14 01:30:05;;;;;;;1.60;1.20;;;8.20;98.20;;;;;;5049593;28;20562;-78
2021/12/14 01:32:36;;;;;;;1.60;1.20;;;8.20;98.20;;;;;;5049615;28;20468;-76
2021/12/14 01:35:12;;;;;;;2.03;1.83;;;8.10;98.20;;;;;;5049541;28;20462;-78
2021/12/14 01:37:47;;;;;;;1.60;1.30;;;8.10;98.20;;;;;;5047951;28;20478;-78
2021/12/14 01:40:45;;;;;;;1.60;1.30;;;8.10;98.20;;;;;;5049486;28;20482;-77
2021/12/14 01:43:08;;;;;;;1.60;1.20;;;8.10;98.20;;;;;;5048406;28;20487;-77
2021/12/14 01:45:35;;;;;;;1.60;1.23;;;8.10;98.20;;;;;;5049587;28;20989;-78
2021/12/14 01:48:02;;;;;;;1.60;1.20;;;8.10;98.20;;;;;;5050663;28;20488;-77
2021/12/14 01:50:35;;;;;;;1.60;1.20;;;8.10;98.20;;;;;;5050111;28;20466;-78
2021/12/14 01:53:04;;;;;;;1.60;1.30;;;8.10;98.20;;;;;;5050045;28;20545;-78
2021/12/14 01:55:35;;;;;;;1.60;1.20;;;8.10;98.20;;;;;;5050228;28;20465;-78
2021/12/14 01:58:05;;;;;;;1.60;1.30;;;8.10;98.20;;;;;;5049920;28;20516;-77
2021/12/14 02:00:35;;;;;;;1.60;1.30;;;8.10;98.20;;;;;;5049950;28;20546;-77
2021/12/14 02:03:05;;;;;;;1.63;1.30;;;8.10;98.20;;;;;;5049593;28;20459;-77
2021/12/14 02:05:34;;;;;;;1.60;1.20;;;8.10;98.20;;;;;;5050129;28;20549;-77
2021/12/14 02:08:13;;;;;;;1.60;1.30;;;8.20;98.20;;;;;;5047745;28;20474;-78
2021/12/14 02:10:41;;;;;;;1.60;1.20;;;8.10;98.20;;;;;;5049277;28;20462;-77
2021/12/14 02:13:08;;;;;;;1.60;1.30;;;8.20;98.20;;;;;;5048599;28;21083;-77
2021/12/14 02:15:38;;;;;;;1.60;1.23;;;8.20;98.20;;;;;;5049783;28;20539;-77
2021/12/14 02:18:11;;;;;;;1.60;1.20;;;8.20;98.20;;;;;;5049610;28;20817;-79
2021/12/14 02:20:45;;;;;;;1.60;1.20;;;8.20;98.20;;;;;;5049911;28;20492;-77
2021/12/14 02:23:12;;;;;;;1.60;1.20;;;8.20;98.20;;;;;;5034938;28;20476;-78
2021/12/14 02:25:39;;;;;;;1.60;1.20;;;8.20;98.20;;;;;;5048635;28;20475;-77
2021/12/14 02:28:11;;;;;;;1.60;1.10;;;8.20;98.20;;;;;;5050341;28;20489;-78
2021/12/14 02:30:41;;;;;;;1.60;1.30;;;8.20;98.20;;;;;;5048830;28;20450;-76
2021/12/14 02:33:15;;;;;;;1.60;1.20;;;8.20;98.20;;;;;;5048794;28;20455;-76
2021/12/14 02:35:42;;;;;;;1.60;1.10;;;8.20;98.20;;;;;;5048416;28;20461;-77
2021/12/14 02:38:13;;;;;;;1.60;1.20;;;8.20;98.20;;;;;;5048905;28;21032;-78
2021/12/14 02:40:54;;;;;;;1.60;1.20;;;8.20;98.20;;;;;;5047182;28;20563;-77
2021/12/14 02:43:25;;;;;;;1.60;1.20;;;8.20;98.20;;;;;;5046922;28;21145;-79
2021/12/14 02:45:52;;;;;;;1.60;1.20;;;8.20;98.20;;;;;;5047172;28;20502;-80
2021/12/14 02:48:20;;;;;;;1.60;1.20;;;8.20;98.20;;;;;;5049201;28;20478;-78
2021/12/14 02:50:47;;;;;;;1.60;1.23;;;8.20;98.20;;;;;;5049187;28;20465;-78
2021/12/14 02:53:17;;;;;;;1.70;1.40;;;8.20;98.20;;;;;;5051810;28;20549;-77
2021/12/14 02:55:44;;;;;;;1.60;1.20;;;8.20;98.20;;;;;;5052679;28;20454;-77
2021/12/14 02:58:11;;;;;;;1.60;1.20;;;8.20;98.20;;;;;;5052920;28;20557;-77
2021/12/14 03:00:43;;;;;;;1.60;1.20;;;8.20;98.20;;;;;;5052860;28;20484;-76
2021/12/14 03:03:11;;;;;;;1.60;1.30;;;8.20;98.20;;;;;;5052193;28;20469;-78
2021/12/14 03:05:43;;;;;;;1.60;1.30;;;8.20;98.20;;;;;;5047287;28;20489;-77
2021/12/14 03:08:15;;;;;;;1.63;1.30;;;8.20;98.20;;;;;;5052505;28;20489;-77
2021/12/14 03:10:56;;;;;;;1.60;1.20;;;8.20;98.20;;;;;;5052119;28;20473;-78
2021/12/14 03:13:28;;;;;;;1.60;1.20;;;8.20;98.20;;;;;;5052284;28;20584;-77
2021/12/14 03:15:58;;;;;;;1.60;1.20;;;8.20;98.20;;;;;;5051939;28;20558;-77
2021/12/14 03:18:28;;;;;;;1.60;1.20;;;8.20;98.20;;;;;;5052913;28;20520;-78
2021/12/14 03:20:59;;;;;;;1.60;1.23;;;8.20;98.20;;;;;;5052652;28;20565;-76
2021/12/14 03:23:30;;;;;;;1.60;1.20;;;8.20;98.20;;;;;;5052548;28;21005;-78
2021/12/14 03:26:01;;;;;;;1.60;1.30;;;8.20;98.20;;;;;;5051431;28;21093;-77
2021/12/14 03:28:30;;;;;;;1.60;1.20;;;8.20;98.20;;;;;;5052228;28;20478;-78
2021/12/14 03:31:05;;;;;;;1.60;1.30;;;8.20;98.20;;;;;;5052149;28;20519;-78
2021/12/14 03:33:36;;;;;;;1.60;1.20;;;8.20;98.20;;;;;;5050720;28;20469;-76
2021/12/14 03:36:08;;;;;;;1.63;1.20;;;8.20;98.20;;;;;;5050968;28;20473;-78
2021/12/14 03:38:37;;;;;;;1.60;1.20;;;8.20;98.20;;;;;;5052030;28;20482;-78
2021/12/14 03:41:11;;;;;;;1.60;1.27;;;8.20;98.20;;;;;;5051258;28;20497;-78
2021/12/14 03:43:40;;;;;;;3.60;3.33;;;8.20;98.20;;;;;;5052072;28;21217;-78
2021/12/14 03:46:08;;;;;;;1.60;1.30;;;8.20;98.20;;;;;;5051814;28;20819;-77
2021/12/14 03:48:37;;;;;;;1.60;1.20;;;8.20;98.20;;;;;;5051026;28;20609;-78
2021/12/14 03:51:05;;;;;;;1.60;1.20;;;8.20;98.20;;;;;;5052322;28;20471;-78
2021/12/14 03:53:32;;;;;;;1.60;1.30;;;8.20;98.20;;;;;;5050965;28;20557;-78
2021/12/14 03:56:05;;;;;;;1.60;1.20;;;8.10;98.20;;;;;;5051099;28;20514;-78
2021/12/14 03:58:37;;;;;;;1.60;1.20;;;8.10;98.20;;;;;;5052008;28;20482;-78
2021/12/14 04:01:08;;;;;;;1.60;1.20;;;8.10;98.20;;;;;;5050560;28;20554;-77
2021/12/14 04:03:36;;;;;;;1.60;1.20;;;8.10;98.20;;;;;;5050528;28;20459;-77
2021/12/14 04:06:06;;;;;;;1.60;1.23;;;8.10;98.20;;;;;;5049531;28;20459;-79
2021/12/14 04:08:34;;;;;;;1.60;1.20;;;8.10;98.20;;;;;;5049853;28;20493;-77
2021/12/14 04:11:04;;;;;;;1.60;1.20;;;8.10;98.20;;;;;;5050259;28;20469;-77
2021/12/14 04:13:36;;;;;;;1.60;1.20;;;8.10;98.20;;;;;;5050572;28;20831;-76
2021/12/14 04:16:06;;;;;;;1.70;1.40;;;8.10;98.20;;;;;;5049035;28;20463;-76
2021/12/14 04:18:34;;;;;;;1.60;1.20;;;8.10;98.20;;;;;;5051423;28;20478;-77
2021/12/14 04:21:01;;;;;;;1.60;1.20;;;8.10;98.20;;;;;;5050695;28;20849;-78
2021/12/14 04:23:31;;;;;;;1.60;1.20;;;8.10;98.20;;;;;;5048032;28;21066;-77
2021/12/14 04:26:02;;;;;;;1.60;1.20;;;8.10;98.20;;;;;;5049280;28;20499;-77
2021/12/14 04:28:33;;;;;;;1.60;1.30;;;8.10;98.20;;;;;;5045487;28;20565;-77
2021/12/14 04:31:01;;;;;;;1.60;1.23;;;8.10;98.20;;;;;;5049919;28;20988;-77
2021/12/14 04:33:31;;;;;;;1.60;1.20;;;8.10;98.20;;;;;;5046414;28;20463;-76
2021/12/14 04:35:59;;;;;;;1.60;1.20;;;8.10;98.20;;;;;;5049149;28;20464;-77
2021/12/14 04:38:29;;;;;;;1.63;1.30;;;8.10;98.20;;;;;;5050651;28;20478;-78
2021/12/14 04:52:09;;;;;;;1.60;1.20;;;8.10;98.20;;;;;;5049033;28;20509;-77
2021/12/14 04:54:40;;;;;;;1.60;1.20;;;8.10;98.20;;;;;;5048916;28;20482;-79
2021/12/14 04:57:18;;;;;;;1.67;1.30;;;8.10;98.20;;;;;;5048024;28;20778;-77
2021/12/14 04:59:46;;;;;;;1.60;1.20;;;8.10;98.20;;;;;;5045228;28;20494;-77
2021/12/14 05:02:17;;;;;;;1.60;1.20;;;8.10;98.20;;;;;;5046297;28;20576;-78
2021/12/14 05:04:44;;;;;;;1.60;1.20;;;8.10;98.20;;;;;;5049084;28;20462;-79
2021/12/14 05:10:00;;;;;;;1.60;1.20;;;8.00;98.20;;;;;;5026864;28;20931;-77
2021/12/14 05:12:29;;;;;;;1.60;1.20;;;8.10;98.20;;;;;;5046762;28;20484;-77
2021/12/14 05:14:59;;;;;;;1.60;1.20;;;8.00;98.20;;;;;;5043258;28;20470;-77
2021/12/14 05:17:32;;;;;;;1.60;1.20;;;8.00;98.20;;;;;;5049719;28;20477;-78
2021/12/14 05:20:00;;;;;;;1.60;1.30;;;8.00;98.20;;;;;;5050948;28;20458;-78
2021/12/14 05:22:31;;;;;;;1.60;1.30;;;8.00;98.20;;;;;;5049057;28;20486;-77
2021/12/14 05:25:03;;;;;;;1.60;1.30;;;8.00;98.20;;;;;;5049308;28;20474;-77
2021/12/14 05:27:35;;;;;;;1.60;1.30;;;8.00;98.20;;;;;;5048222;28;20833;-76
2021/12/14 05:30:10;;;;;;;1.60;1.20;;;8.00;98.20;;;;;;5054411;28;20520;-77
2021/12/14 05:32:39;;;;;;;1.60;1.20;;;8.00;98.20;;;;;;5049010;28;20462;-77
2021/12/14 05:35:08;;;;;;;1.60;1.20;;;8.00;98.20;;;;;;5049929;28;20468;-77
2021/12/14 05:37:43;;;;;;;1.60;1.10;;;8.00;98.20;;;;;;5045688;28;20482;-74
2021/12/14 05:40:20;;;;;;;1.60;1.20;;;8.00;98.20;;;;;;5046773;28;20833;-75
2021/12/14 05:45:32;;;;;;;1.60;1.20;;;8.00;98.20;;;;;;5050181;28;21098;-78
2021/12/14 05:48:01;;;;;;;1.60;1.20;;;8.00;98.20;;;;;;5055297;28;20838;-78
2021/12/14 05:50:31;;;;;;;1.60;1.27;;;8.00;98.20;;;;;;5053371;28;20556;-77
2021/12/14 05:52:59;;;;;;;1.90;1.57;;;8.00;98.20;;;;;;5050348;28;20558;-78
2021/12/14 05:55:28;;;;;;;1.60;1.30;;;8.00;98.20;;;;;;5049995;28;20545;-76
2021/12/14 05:57:58;;;;;;;1.60;1.30;;;8.00;98.20;;;;;;5045409;28;21186;-77
2021/12/14 06:00:27;;;;;;;1.60;1.20;;;8.00;98.20;;;;;;5048640;28;20458;-77
2021/12/14 06:02:54;;;;;;;1.60;1.30;;;7.90;98.20;;;;;;5046041;28;21009;-77
2021/12/14 06:05:24;;;;;;;1.63;1.30;;;7.90;98.20;;;;;;5045289;28;20546;-75
2021/12/14 06:07:51;;;;;;;1.60;1.30;;;8.00;98.20;;;;;;5045474;28;20491;-75
2021/12/14 06:10:23;;;;;;;1.60;1.20;;;7.90;98.20;;;;;;5045699;28;20462;-74
2021/12/14 06:12:51;;;;;;;1.60;1.30;;;8.00;98.20;;;;;;5045515;28;20474;-74
2021/12/14 06:15:25;;;;;;;1.60;1.20;;;7.90;98.20;;;;;;5044985;28;20463;-75
2021/12/14 06:17:52;;;;;;;1.60;1.20;;;7.90;98.20;;;;;;5046409;28;20488;-75
2021/12/14 06:20:24;;;;;;;1.60;1.20;;;7.90;98.20;;;;;;5046072;28;20953;-76
2021/12/14 06:22:53;;;;;;;1.60;1.20;;;7.90;98.20;;;;;;5042963;28;20870;-75
2021/12/14 06:25:23;;;;;;;1.60;1.20;;;7.90;98.20;;;;;;5038263;28;20968;-75
2021/12/14 06:27:51;;;;;;;1.60;1.20;;;7.90;98.20;;;;;;5047496;28;20474;-74
2021/12/14 06:30:22;;;;;;;1.60;1.20;;;7.90;98.20;;;;;;5047503;28;20621;-75
2021/12/14 06:32:51;;;;;;;1.60;1.20;;;7.90;98.20;;;;;;5048299;28;20975;-74
2021/12/14 06:35:23;;;;;;;1.60;1.20;;;7.90;98.20;;;;;;5046063;28;20577;-74
2021/12/14 06:38:23;;;;;;;1.60;1.20;;;7.90;98.20;;;;;;5050012;28;20488;-75
2021/12/14 06:41:04;;;;;;;1.60;1.30;;;7.90;98.20;;;;;;5049402;28;21079;-75
2021/12/14 06:43:35;;;;;;;1.60;1.20;;;7.90;98.20;;;;;;5047581;28;20535;-75
2021/12/14 06:46:05;;;;;;;1.60;1.30;;;7.90;98.20;;;;;;5048234;28;20473;-75
2021/12/14 06:48:39;;;;;;;1.70;1.30;;;7.90;98.20;;;;;;5044678;28;20505;-75
2021/12/14 06:51:08;;;;;;;1.60;1.20;;;7.90;98.20;;;;;;5048697;28;20966;-74
2021/12/14 06:53:38;;;;;;;1.60;1.20;;;7.90;98.20;;;;;;5049096;28;20903;-75
2021/12/14 06:56:09;;;;;;;1.60;1.20;;;7.90;98.20;;;;;;5048010;28;20458;-75
2021/12/14 06:58:46;;;;;;;1.60;1.30;;;7.90;98.20;;;;;;5047274;28;20492;-75
2021/12/14 07:01:15;;;;;;;1.60;1.20;;;7.90;98.20;;;;;;5048902;28;20470;-75
2021/12/14 07:03:45;;;;;;;1.60;1.20;;;7.90;98.20;;;;;;5048163;28;20494;-75
2021/12/14 07:06:21;;;;;;;1.60;1.20;;;7.90;98.20;;;;;;5048023;28;20462;-75
2021/12/14 07:08:49;;;;;;;1.60;1.20;;;7.90;98.20;;;;;;5049570;28;20489;-75
2021/12/14 07:11:20;;;;;;;1.60;1.20;;;7.90;98.20;;;;;;5044387;28;20515;-75
2021/12/14 07:13:47;;;;;;;1.60;1.20;;;7.90;98.20;;;;;;5069434;28;20458;-75
2021/12/14 07:16:21;;;;;;;1.60;1.20;;;7.90;98.20;;;;;;5044484;28;20468;-75
2021/12/14 07:18:53;;;;;;;1.60;1.23;;;7.90;98.20;;;;;;5069197;28;20509;-75
2021/12/14 07:21:43;;;;;;;1.60;1.30;;;7.90;98.20;;;;;;5045628;28;20530;-75
2021/12/14 07:24:37;;;;;;;1.60;1.30;;;7.90;98.20;;;;;;5063724;28;20462;-73
2021/12/14 07:27:20;;;;;;;1.60;1.30;;;7.90;98.20;;;;;;5052626;28;20476;-73
2021/12/14 07:29:48;;;;;;;1.60;1.20;;;7.90;98.20;;;;;;5054898;28;20488;-74
2021/12/14 07:32:16;;;;;;;1.60;1.30;;;7.90;98.20;;;;;;5060381;28;20564;-73
2021/12/14 07:34:43;;;;;;;1.60;1.20;;;7.90;98.20;;;;;;5055802;28;20454;-74
2021/12/14 07:37:10;;;;;;;1.60;1.23;;;7.90;98.20;;;;;;5057897;28;20537;-73
2021/12/14 07:39:38;;;;;;;1.60;1.20;;;7.90;98.20;;;;;;5057716;28;20549;-73
2021/12/14 07:42:06;;;;;;;1.60;1.20;;;7.90;98.20;;;;;;5056949;28;20538;-73
2021/12/14 07:44:38;;;;;;;1.60;1.30;;;7.90;98.20;;;;;;5058090;28;20463;-73
2021/12/14 07:47:08;;;;;;;1.60;1.20;;;7.90;98.20;;;;;;5058115;28;20472;-74
2021/12/14 07:49:38;;;;;;;1.63;1.30;;;7.90;98.20;;;;;;5060049;28;20571;-73
2021/12/14 07:52:11;;;;;;;1.60;1.20;;;7.90;98.20;;;;;;5060124;28;20461;-73
2021/12/14 07:54:43;;;;;;;1.60;1.20;;;7.80;98.20;;;;;;5058959;28;20466;-73
2021/12/14 07:57:13;;;;;;;1.60;1.20;;;7.90;98.20;;;;;;5063900;28;20563;-73
2021/12/14 07:59:42;;;;;;;1.60;1.20;;;7.90;98.20;;;;;;5061927;28;20454;-74
2021/12/14 08:02:16;;;;;;;1.70;1.40;;;7.90;98.20;;;;;;5063464;28;20523;-73
2021/12/14 08:04:46;;;;;;;1.60;1.20;;;7.90;98.20;;;;;;5062135;28;20557;-73
2021/12/14 08:07:25;;;;;;;1.60;1.27;;;7.90;98.20;;;;;;5063697;28;20557;-76
2021/12/14 08:09:57;;;;;;;1.60;1.20;;;7.90;98.20;;;;;;5057089;28;21181;-73
2021/12/14 08:12:36;;;;;;;1.60;1.20;;;7.90;98.20;;;;;;5067229;28;20549;-74
2021/12/14 08:15:10;;;;;;;1.60;1.20;;;7.90;98.20;;;;;;5050239;28;20958;-73
2021/12/14 08:17:38;;;;;;;1.60;1.10;;;7.90;98.20;;;;;;5067024;28;20484;-73
2021/12/14 08:20:08;;;;;;;1.60;1.20;;;7.90;98.20;;;;;;5049697;28;20553;-72
2021/12/14 08:22:38;;;;;;;1.60;1.20;;;7.90;98.20;;;;;;5064744;28;20484;-73
2021/12/14 08:25:09;;;;;;;1.60;1.20;;;7.90;98.20;;;;;;5046704;28;20473;-73
2021/12/14 08:27:37;;;;;;;1.60;1.20;;;7.90;98.20;;;;;;5065421;28;20484;-74
2021/12/14 08:30:09;;;;;;;1.60;1.20;;;7.90;98.20;;;;;;5050542;28;20466;-74
2021/12/14 08:32:39;;;;;;;1.60;1.10;;;7.90;98.20;;;;;;5065010;28;20561;-72
2021/12/14 08:35:11;;;;;;;1.60;1.20;;;7.90;98.20;;;;;;5047737;28;20462;-73
2021/12/14 08:37:40;;;;;;;1.60;1.30;;;8.00;98.20;;;;;;5064935;28;20480;-73
2021/12/14 08:40:12;;;;;;;1.60;1.20;;;8.00;98.20;;;;;;5048011;28;20478;-73
2021/12/14 08:42:47;;;;;;;1.60;1.20;;;8.00;98.20;;;;;;5066238;28;20479;-73
2021/12/14 08:45:27;;;;;;;1.60;1.23;;;8.00;98.20;;;;;;5045627;28;20492;-74
2021/12/14 08:47:58;;;;;;;1.60;1.20;;;8.00;98.20;;;;;;5066345;28;20484;-74
2021/12/14 08:50:27;;;;;;;1.60;1.20;;;8.00;98.20;;;;;;5045809;28;20466;-74
2021/12/14 08:52:54;;;;;;;1.60;1.30;;;8.00;98.20;;;;;;5066129;28;20476;-74
2021/12/14 08:55:25;;;;;;;1.60;1.20;;;8.10;98.20;;;;;;5046275;28;21198;-73
2021/12/14 08:57:53;;;;;;;1.60;1.20;;;8.10;98.20;;;;;;5068206;28;20484;-74
2021/12/14 09:00:24;;;;;;;1.60;1.20;;;8.10;98.20;;;;;;5046560;28;20469;-74
2021/12/14 09:02:58;;;;;;;1.60;1.30;;;8.10;98.20;;;;;;5069674;28;20475;-74
2021/12/14 09:05:30;;;;;;;1.60;1.17;;;8.10;98.20;;;;;;5047880;28;20458;-73
2021/12/14 09:07:58;;;;;;;1.60;1.10;;;8.10;98.20;;;;;;5068513;28;20987;-73
2021/12/14 09:10:33;;;;;;;1.63;1.30;;;8.10;98.20;;;;;;5047622;28;20455;-75
2021/12/14 09:13:04;;;;;;;1.67;1.30;;;8.20;98.20;;;;;;5063735;28;20476;-74
2021/12/14 09:15:35;;;;;;;1.60;1.20;;;8.20;98.20;;;;;;5046278;28;21022;-74
2021/12/14 09:18:02;;;;;;;1.60;1.20;;;8.20;98.20;;;;;;5067266;28;20480;-74
2021/12/14 09:20:34;;;;;;;1.60;1.23;;;8.20;98.20;;;;;;5046077;28;20486;-74
2021/12/14 09:23:05;;;;;;;1.63;1.30;;;8.20;98.20;;;;;;5066652;28;20480;-74
2021/12/14 09:25:35;;;;;;;1.60;1.17;;;8.20;98.20;;;;;;5044800;28;20472;-74
2021/12/14 09:28:03;;;;;;;1.60;1.20;;;8.20;98.20;;;;;;5067450;28;20492;-74
2021/12/14 09:30:33;;;;;;;1.60;1.20;;;8.20;98.20;;;;;;5046257;28;20549;-74
2021/12/14 09:33:00;;;;;;;1.60;1.23;;;8.30;98.20;;;;;;5066966;28;20571;-74
2021/12/14 09:35:31;;;;;;;1.60;1.20;;;8.30;98.20;;;;;;5045445;28;20470;-74
2021/12/14 09:37:59;;;;;;;1.60;1.20;;;8.30;98.20;;;;;;5067253;28;20621;-73
2021/12/14 09:40:30;;;;;;;1.60;1.30;;;8.30;98.20;;;;;;5046243;28;20517;-73
2021/12/14 09:42:59;;;;;;;1.60;1.10;;;8.30;98.20;;;;;;5068310;28;20480;-76
2021/12/14 09:45:33;;;;;;;1.60;1.20;;;8.30;98.20;;;;;;5047252;28;20970;-76
2021/12/14 09:48:01;;;;;;;1.67;1.30;;;8.30;98.20;;;;;;5069592;28;20493;-75
2021/12/14 09:50:32;;;;;;;1.60;1.20;;;8.30;98.20;;;;;;5046647;28;20559;-75
2021/12/14 09:53:03;;;;;;;1.60;1.23;;;8.30;98.20;;;;;;5068021;28;20572;-74
2021/12/14 09:55:34;;;;;;;1.60;1.20;;;8.40;98.20;;;;;;5046052;28;20558;-76
2021/12/14 09:58:08;;;;;;;1.60;1.20;;;8.40;98.20;;;;;;5068067;28;20480;-76
2021/12/14 10:00:40;;;;;;;1.60;1.17;;;8.40;98.20;;;;;;5044037;28;20473;-75
2021/12/14 10:03:09;;;;;;;1.60;1.10;;;8.40;98.20;;;;;;5070912;28;21188;-76
2021/12/14 10:05:40;;;;;;;1.60;1.20;;;8.40;98.20;;;;;;5051423;28;20469;-74
2021/12/14 10:08:15;;;;;;;1.60;1.10;;;8.50;98.20;;;;;;5073929;28;20563;-74
2021/12/14 10:10:45;;;;;;;1.60;1.17;;;8.50;98.20;;;;;;5041841;28;20535;-76
2021/12/14 10:13:15;;;;;;;1.60;1.30;;;8.60;98.20;;;;;;5068664;28;20540;-76
2021/12/14 10:15:48;;;;;;;1.60;1.20;;;8.60;98.20;;;;;;5048330;28;20468;-75
2021/12/14 10:18:18;;;;;;;1.60;1.10;;;8.60;98.20;;;;;;5036525;28;20871;-76
2021/12/14 10:20:49;;;;;;;1.60;1.20;;;8.60;98.20;;;;;;5048101;28;20569;-78
2021/12/14 10:23:21;;;;;;;1.60;1.20;;;8.60;98.20;;;;;;5052639;28;20481;-76
2021/12/14 10:25:49;;;;;;;1.60;1.20;;;8.70;98.20;;;;;;5038315;28;20453;-74
2021/12/14 10:28:20;;;;;;;1.60;1.20;;;8.70;98.20;;;;;;5076636;28;20489;-74
2021/12/14 10:30:55;;;;;;;1.60;1.30;;;8.70;98.20;;;;;;5052173;28;20827;-74
2021/12/14 10:33:24;;;;;;;1.60;1.17;;;8.70;98.20;;;;;;5035600;28;20555;-73
2021/12/14 10:35:58;;;;;;;1.60;1.20;;;8.80;98.20;;;;;;5035533;28;20458;-73
2021/12/14 10:38:33;;;;;;;1.60;1.20;;;8.80;98.20;;;;;;5077172;28;20492;-75
2021/12/14 10:43:53;;;;;;;1.60;1.13;;;8.80;98.20;;;;;;5067544;28;20481;-75
2021/12/14 10:46:24;;;;;;;1.67;1.20;;;8.80;98.20;;;;;;5043846;28;20483;-74
2021/12/14 10:48:52;;;;;;;1.60;1.20;;;8.80;98.20;;;;;;5066829;28;20504;-75
2021/12/14 10:51:22;;;;;;;1.60;1.20;;;8.80;98.20;;;;;;5041894;28;20480;-75
2021/12/14 10:53:53;;;;;;;1.60;1.20;;;8.80;98.20;;;;;;5068686;28;20484;-75
2021/12/14 10:56:26;;;;;;;1.60;1.20;;;8.80;98.20;;;;;;5042939;28;20480;-75
2021/12/14 10:59:00;;;;;;;1.60;1.20;;;8.80;98.20;;;;;;5064971;28;20569;-75
2021/12/14 11:01:33;;;;;;;1.60;1.10;;;8.80;98.20;;;;;;5044202;28;20875;-75
2021/12/14 11:04:06;;;;;;;1.60;1.10;;;8.80;98.20;;;;;;5065122;28;20497;-75
2021/12/14 11:06:34;;;;;;;1.60;1.20;;;8.90;98.20;;;;;;5047057;28;20482;-75
2021/12/14 11:11:58;;;;;;;1.60;1.20;;;8.80;98.20;;;;;;5050383;28;20515;-75
2021/12/14 11:14:33;;;;;;;1.60;1.20;;;8.80;98.20;;;;;;5062336;28;20454;-75
2021/12/14 11:19:56;;;;;;;1.60;1.20;;;8.90;98.20;;;;;;4991694;28;20461;-75
2021/12/14 11:22:28;;;;;;;1.60;1.10;;;9.00;98.20;;;;;;5059542;28;20480;-74
2021/12/14 11:25:00;;;;;;;1.60;1.20;;;9.00;98.20;;;;;;5049162;28;20490;-75
2021/12/14 11:27:31;;;;;;;1.60;1.30;;;9.00;98.20;;;;;;5060999;28;20492;-75
2021/12/14 11:30:15;;;;;;;1.60;1.20;;;9.00;98.20;;;;;;5050387;28;20987;-75
2021/12/14 11:32:43;;;;;;;1.60;1.17;;;9.10;98.20;;;;;;5063667;28;21100;-76
2021/12/14 11:35:25;;;;;;;1.63;1.20;;;9.10;98.20;;;;;;5046421;28;20592;-75
2021/12/14 11:37:55;;;;;;;1.60;1.20;;;9.10;98.20;;;;;;5064841;28;20981;-75
2021/12/14 11:40:23;;;;;;;1.60;1.10;;;9.10;98.20;;;;;;5045637;28;20836;-74
2021/12/14 11:42:51;;;;;;;1.60;1.20;;;9.20;98.20;;;;;;5066359;28;20488;-74
2021/12/14 11:45:23;;;;;;;1.60;1.10;;;9.20;98.20;;;;;;5044140;28;20564;-75
2021/12/14 11:47:54;;;;;;;1.60;1.20;;;9.20;98.20;;;;;;5066406;28;20495;-75
2021/12/14 11:50:25;;;;;;;1.60;1.30;;;9.30;98.20;;;;;;5044633;28;20467;-75
2021/12/14 11:53:00;;;;;;;1.60;1.10;;;9.30;98.20;;;;;;5065208;28;20488;-75
2021/12/14 11:55:47;;;;;;;1.60;1.20;;;9.30;98.20;;;;;;5044124;28;20474;-75
2021/12/14 11:58:20;;;;;;;1.60;1.20;;;9.40;98.20;;;;;;5036051;28;20478;-75
2021/12/14 12:00:54;;;;;;;1.67;1.20;;;9.40;98.20;;;;;;5037103;28;20475;-75
2021/12/14 12:03:31;;;;;;;1.60;1.17;;;9.40;98.20;;;;;;5072742;28;20594;-75
2021/12/14 12:06:07;;;;;;;1.60;1.00;;;9.40;98.20;;;;;;5036459;28;20498;-75
2021/12/14 12:11:24;;;;;;;1.60;1.10;;;9.50;98.20;;;;;;5029338;28;20464;-75
2021/12/14 12:13:54;;;;;;;1.60;1.20;;;9.50;98.20;;;;;;5062474;28;20545;-75
2021/12/14 12:16:26;;;;;;;1.60;1.13;;;9.50;98.20;;;;;;5036490;28;21056;-75
2021/12/14 12:19:10;;;;;;;1.60;1.10;;;9.50;98.20;;;;;;5047240;28;20515;-75
2021/12/14 12:21:39;;;;;;;1.60;1.20;;;9.50;98.20;;;;;;5014915;28;20494;-75
2021/12/14 12:24:26;;;;;;;1.60;1.20;;;9.50;98.20;;;;;;5024898;28;20494;-75
2021/12/14 12:26:54;;;;;;;1.60;1.10;;;9.50;98.20;;;;;;5023302;28;20942;-76
2021/12/14 12:29:27;;;;;;;1.60;1.10;;;9.50;98.20;;;;;;5045022;28;20524;-75
2021/12/14 12:32:06;;;;;;;1.60;1.17;;;9.50;98.20;;;;;;5050133;28;21102;-75
2021/12/14 12:34:35;;;;;;;1.60;1.10;;;9.50;98.20;;;;;;5051588;28;20962;-75
2021/12/14 12:37:03;;;;;;;1.60;1.20;;;9.50;98.20;;;;;;5053401;28;20645;-75
2021/12/14 12:39:31;;;;;;;1.60;1.20;;;9.60;98.20;;;;;;5050242;28;20966;-75
2021/12/14 12:42:00;;;;;;;1.60;1.17;;;9.60;98.20;;;;;;5049489;28;21024;-75
2021/12/14 12:44:30;;;;;;;1.60;1.20;;;9.60;98.20;;;;;;5052814;28;20486;-75
2021/12/14 12:47:01;;;;;;;1.60;1.20;;;9.60;98.20;;;;;;5050873;28;20492;-75
2021/12/14 12:49:31;;;;;;;1.60;1.20;;;9.60;98.20;;;;;;5054124;28;20466;-75
2021/12/14 12:52:12;;;;;;;1.60;1.20;;;9.60;98.20;;;;;;5049070;28;20508;-75
2021/12/14 12:54:54;;;;;;;1.67;1.30;;;9.60;98.20;;;;;;5050600;28;20523;-75
2021/12/14 12:57:41;;;;;;;1.60;1.00;;;9.60;98.20;;;;;;5053795;28;20487;-75
2021/12/14 13:00:23;;;;;;;1.60;1.10;;;9.70;98.20;;;;;;5044562;28;21296;-75
2021/12/14 13:02:55;;;;;;;1.60;1.13;;;9.70;98.20;;;;;;5068806;28;20491;-75
2021/12/14 13:05:27;;;;;;;1.70;1.40;;;9.70;98.20;;;;;;5042494;28;20905;-75
2021/12/14 13:07:57;;;;;;;1.60;1.17;;;9.70;98.20;;;;;;5058796;28;20583;-75
2021/12/14 13:10:30;;;;;;;1.60;1.10;;;9.80;98.20;;;;;;5042250;28;20500;-75
2021/12/14 13:13:15;;;;;;;1.60;1.20;;;9.80;98.20;;;;;;5060474;28;20482;-75
2021/12/14 13:16:00;;;;;;;1.60;1.20;;;9.80;98.20;;;;;;5040669;28;20454;-75
2021/12/14 13:18:46;;;;;;;1.60;1.20;;;9.90;98.20;;;;;;5030474;28;20486;-75
2021/12/14 13:21:31;;;;;;;1.60;1.20;;;9.90;98.20;;;;;;5035576;28;20476;-75
2021/12/14 13:24:08;;;;;;;1.60;1.10;;;10.00;98.20;;;;;;5058282;28;20494;-76
2021/12/14 13:26:40;;;;;;;1.60;1.20;;;10.00;98.20;;;;;;5043976;28;20709;-75
2021/12/14 13:29:20;;;;;;;1.60;1.20;;;10.00;98.20;;;;;;5059560;28;20984;-75
2021/12/14 13:31:51;;;;;;;1.60;1.10;;;10.00;98.20;;;;;;5046369;28;20480;-75
2021/12/14 13:34:23;;;;;;;1.67;1.20;;;10.10;98.20;;;;;;5053995;28;20476;-75
2021/12/14 13:36:52;;;;;;;1.60;1.10;;;10.10;98.20;;;;;;5048160;28;20476;-75
2021/12/14 13:39:20;;;;;;;1.60;1.10;;;10.10;98.20;;;;;;5051445;28;20462;-75
2021/12/14 13:42:30;;;;;;;1.60;1.10;;;10.10;98.20;;;;;;5044828;28;21189;-75
2021/12/14 13:44:57;;;;;;;1.60;1.20;;;10.10;98.20;;;;;;5019795;28;20582;-75
2021/12/14 13:47:28;;;;;;;1.60;1.10;;;10.10;98.20;;;;;;5056628;28;20525;-76
2021/12/14 13:50:00;;;;;;;1.60;1.20;;;10.10;98.20;;;;;;5046307;28;20740;-75